sensor_id;sensor_type;location;lat;lon;timestamp;P1;P2;P0
69349;PMS5003;64554;43.452;4.934;2023-12-20T00:00:15;25.20;22.00;13.00
69349;PMS5003;64554;43.452;4.934;2023-12-20T00:02:41;24.50;21.50;13.75
69349;PMS5003;64554;43.452;4.934;2023-12-20T00:05:13;22.60;20.60;13.40
69349;PMS5003;64554;43.452;4.934;2023-12-20T00:07:40;20.00;19.00;12.40
69349;PMS5003;64554;43.452;4.934;2023-12-20T00:10:06;21.75;19.75;13.00
69349;PMS5003;64554;43.452;4.934;2023-12-20T00:12:33;16.80;15.60;10.00
69349;PMS5003;64554;43.452;4.934;2023-12-20T00:15:00;22.00;15.40;12.00
69349;PMS5003;64554;43.452;4.934;2023-12-20T00:17:26;21.75;21.00;9.00
69349;PMS5003;64554;43.452;4.934;2023-12-20T00:19:53;18.20;18.20;11.20
69349;PMS5003;64554;43.452;4.934;2023-12-20T00:22:20;18.20;15.20;9.80
69349;PMS5003;64554;43.452;4.934;2023-12-20T00:24:46;14.00;14.00;9.25
69349;PMS5003;64554;43.452;4.934;2023-12-20T00:27:13;17.80;16.80;11.80
69349;PMS5003;64554;43.452;4.934;2023-12-20T00:29:39;17.80;16.80;10.00
69349;PMS5003;64554;43.452;4.934;2023-12-20T00:32:05;12.60;12.60;9.00
69349;PMS5003;64554;43.452;4.934;2023-12-20T00:34:32;16.40;14.40;8.00
69349;PMS5003;64554;43.452;4.934;2023-12-20T00:36:58;15.60;14.60;9.00
69349;PMS5003;64554;43.452;4.934;2023-12-20T00:39:25;17.60;16.00;10.00
69349;PMS5003;64554;43.452;4.934;2023-12-20T00:41:51;14.00;14.00;9.50
69349;PMS5003;64554;43.452;4.934;2023-12-20T00:44:18;14.40;14.00;9.00
69349;PMS5003;64554;43.452;4.934;2023-12-20T00:46:44;14.00;13.00;8.60
69349;PMS5003;64554;43.452;4.934;2023-12-20T00:49:11;14.40;14.40;9.00
69349;PMS5003;64554;43.452;4.934;2023-12-20T00:51:37;14.00;14.00;9.00
69349;PMS5003;64554;43.452;4.934;2023-12-20T00:54:04;18.00;15.60;10.00
69349;PMS5003;64554;43.452;4.934;2023-12-20T00:56:30;20.75;15.75;8.75
69349;PMS5003;64554;43.452;4.934;2023-12-20T00:58:56;15.25;15.25;10.00
69349;PMS5003;64554;43.452;4.934;2023-12-20T01:01:23;16.00;14.80;9.20
69349;PMS5003;64554;43.452;4.934;2023-12-20T01:03:49;14.00;12.00;9.00
69349;PMS5003;64554;43.452;4.934;2023-12-20T01:06:17;23.25;19.25;9.00
69349;PMS5003;64554;43.452;4.934;2023-12-20T01:08:44;16.25;15.25;10.50
69349;PMS5003;64554;43.452;4.934;2023-12-20T01:11:11;16.60;15.40;9.40
69349;PMS5003;64554;43.452;4.934;2023-12-20T01:13:37;13.00;13.00;9.00
69349;PMS5003;64554;43.452;4.934;2023-12-20T01:16:03;17.00;15.75;10.00
69349;PMS5003;64554;43.452;4.934;2023-12-20T01:18:30;14.00;14.00;10.00
69349;PMS5003;64554;43.452;4.934;2023-12-20T01:21:01;19.00;19.00;10.25
69349;PMS5003;64554;43.452;4.934;2023-12-20T01:23:27;14.50;13.00;9.00
69349;PMS5003;64554;43.452;4.934;2023-12-20T01:25:54;15.00;12.50;8.00
69349;PMS5003;64554;43.452;4.934;2023-12-20T01:28:20;18.00;16.00;8.50
69349;PMS5003;64554;43.452;4.934;2023-12-20T01:30:47;21.60;20.20;9.80
69349;PMS5003;64554;43.452;4.934;2023-12-20T01:33:14;17.60;16.60;9.00
69349;PMS5003;64554;43.452;4.934;2023-12-20T01:35:40;15.00;13.75;9.00
69349;PMS5003;64554;43.452;4.934;2023-12-20T01:38:06;18.00;16.80;11.00
69349;PMS5003;64554;43.452;4.934;2023-12-20T01:40:33;19.00;15.00;11.00
69349;PMS5003;64554;43.452;4.934;2023-12-20T01:43:00;15.80;14.40;9.00
69349;PMS5003;64554;43.452;4.934;2023-12-20T01:45:27;14.00;14.00;9.00
69349;PMS5003;64554;43.452;4.934;2023-12-20T01:47:54;12.25;12.25;9.75
69349;PMS5003;64554;43.452;4.934;2023-12-20T01:50:22;17.40;16.00;9.00
69349;PMS5003;64554;43.452;4.934;2023-12-20T01:52:48;16.50;13.50;9.00
69349;PMS5003;64554;43.452;4.934;2023-12-20T01:55:19;16.50;16.50;11.00
69349;PMS5003;64554;43.452;4.934;2023-12-20T01:57:46;13.00;13.00;9.00
69349;PMS5003;64554;43.452;4.934;2023-12-20T02:00:14;15.00;15.00;11.00
69349;PMS5003;64554;43.452;4.934;2023-12-20T02:02:40;20.80;20.60;10.00
69349;PMS5003;64554;43.452;4.934;2023-12-20T02:05:07;18.00;16.40;10.60
69349;PMS5003;64554;43.452;4.934;2023-12-20T02:07:34;18.20;15.80;11.00
69349;PMS5003;64554;43.452;4.934;2023-12-20T02:10:01;15.60;15.60;11.60
69349;PMS5003;64554;43.452;4.934;2023-12-20T02:12:28;16.00;16.00;10.50
69349;PMS5003;64554;43.452;4.934;2023-12-20T02:14:54;19.50;15.75;10.75
69349;PMS5003;64554;43.452;4.934;2023-12-20T02:17:21;20.25;17.00;10.00
69349;PMS5003;64554;43.452;4.934;2023-12-20T02:19:49;16.00;14.20;9.20
69349;PMS5003;64554;43.452;4.934;2023-12-20T02:22:15;17.50;16.50;9.00
69349;PMS5003;64554;43.452;4.934;2023-12-20T02:24:42;19.75;19.00;10.00
69349;PMS5003;64554;43.452;4.934;2023-12-20T02:27:08;14.60;13.00;10.00
69349;PMS5003;64554;43.452;4.934;2023-12-20T02:29:35;17.00;14.00;10.40
69349;PMS5003;64554;43.452;4.934;2023-12-20T02:32:02;19.00;18.00;11.50
69349;PMS5003;64554;43.452;4.934;2023-12-20T02:34:29;20.00;19.00;11.80
69349;PMS5003;64554;43.452;4.934;2023-12-20T02:36:56;18.60;18.60;12.00
69349;PMS5003;64554;43.452;4.934;2023-12-20T02:39:22;23.00;22.25;12.25
69349;PMS5003;64554;43.452;4.934;2023-12-20T02:41:49;25.50;23.75;13.25
69349;PMS5003;64554;43.452;4.934;2023-12-20T02:44:15;19.60;19.60;13.00
69349;PMS5003;64554;43.452;4.934;2023-12-20T02:46:41;25.25;24.25;12.00
69349;PMS5003;64554;43.452;4.934;2023-12-20T02:49:08;14.60;14.60;9.00
69349;PMS5003;64554;43.452;4.934;2023-12-20T02:51:34;18.20;15.80;10.80
69349;PMS5003;64554;43.452;4.934;2023-12-20T02:54:04;19.60;19.60;13.00
69349;PMS5003;64554;43.452;4.934;2023-12-20T02:56:32;15.00;14.60;10.40
69349;PMS5003;64554;43.452;4.934;2023-12-20T02:58:58;21.33;21.33;10.33
69349;PMS5003;64554;43.452;4.934;2023-12-20T03:01:25;17.50;16.00;10.00
69349;PMS5003;64554;43.452;4.934;2023-12-20T03:03:51;17.50;15.50;10.00
69349;PMS5003;64554;43.452;4.934;2023-12-20T03:06:18;18.75;16.50;9.00
69349;PMS5003;64554;43.452;4.934;2023-12-20T03:08:45;12.60;12.60;8.60
69349;PMS5003;64554;43.452;4.934;2023-12-20T03:11:11;16.00;14.00;9.00
69349;PMS5003;64554;43.452;4.934;2023-12-20T03:13:38;13.80;11.20;7.40
69349;PMS5003;64554;43.452;4.934;2023-12-20T03:16:08;14.50;14.50;8.00
69349;PMS5003;64554;43.452;4.934;2023-12-20T03:18:35;16.20;14.00;10.60
69349;PMS5003;64554;43.452;4.934;2023-12-20T03:21:01;15.80;13.80;10.00
69349;PMS5003;64554;43.452;4.934;2023-12-20T03:23:27;17.00;15.00;9.00
69349;PMS5003;64554;43.452;4.934;2023-12-20T03:25:54;15.25;14.25;8.50
69349;PMS5003;64554;43.452;4.934;2023-12-20T03:28:20;15.00;14.50;9.00
69349;PMS5003;64554;43.452;4.934;2023-12-20T03:30:47;15.00;14.25;8.25
69349;PMS5003;64554;43.452;4.934;2023-12-20T03:33:13;16.25;13.25;8.25
69349;PMS5003;64554;43.452;4.934;2023-12-20T03:35:40;11.00;11.00;8.00
69349;PMS5003;64554;43.452;4.934;2023-12-20T03:38:06;14.40;14.40;9.40
69349;PMS5003;64554;43.452;4.934;2023-12-20T03:40:33;14.75;13.75;8.00
69349;PMS5003;64554;43.452;4.934;2023-12-20T03:42:59;13.00;13.00;7.00
69349;PMS5003;64554;43.452;4.934;2023-12-20T03:45:26;11.00;11.00;7.00
69349;PMS5003;64554;43.452;4.934;2023-12-20T03:47:52;12.00;12.00;8.00
69349;PMS5003;64554;43.452;4.934;2023-12-20T03:50:23;13.75;11.50;9.00
69349;PMS5003;64554;43.452;4.934;2023-12-20T03:52:49;13.50;11.25;9.00
69349;PMS5003;64554;43.452;4.934;2023-12-20T03:55:16;9.60;9.60;7.00
69349;PMS5003;64554;43.452;4.934;2023-12-20T03:57:42;11.00;11.00;7.00
69349;PMS5003;64554;43.452;4.934;2023-12-20T04:00:09;11.50;11.50;8.50
69349;PMS5003;64554;43.452;4.934;2023-12-20T04:02:37;13.75;11.75;8.00
69349;PMS5003;64554;43.452;4.934;2023-12-20T04:05:04;15.75;15.50;8.00
69349;PMS5003;64554;43.452;4.934;2023-12-20T04:07:31;11.33;11.33;8.00
69349;PMS5003;64554;43.452;4.934;2023-12-20T04:09:58;12.00;11.20;8.00
69349;PMS5003;64554;43.452;4.934;2023-12-20T04:12:24;13.00;13.00;7.60
69349;PMS5003;64554;43.452;4.934;2023-12-20T04:14:51;9.00;9.00;6.00
69349;PMS5003;64554;43.452;4.934;2023-12-20T04:17:17;17.00;13.00;6.00
69349;PMS5003;64554;43.452;4.934;2023-12-20T04:19:44;11.00;9.50;7.00
69349;PMS5003;64554;43.452;4.934;2023-12-20T04:22:10;9.00;8.00;5.00
69349;PMS5003;64554;43.452;4.934;2023-12-20T04:24:37;12.00;11.00;6.00
69349;PMS5003;64554;43.452;4.934;2023-12-20T04:27:03;8.50;8.00;5.00
69349;PMS5003;64554;43.452;4.934;2023-12-20T04:29:30;10.00;10.00;5.60
69349;PMS5003;64554;43.452;4.934;2023-12-20T04:31:56;8.00;8.00;5.00
69349;PMS5003;64554;43.452;4.934;2023-12-20T04:34:22;8.80;8.80;6.00
69349;PMS5003;64554;43.452;4.934;2023-12-20T04:36:49;10.00;9.00;4.50
69349;PMS5003;64554;43.452;4.934;2023-12-20T04:39:16;7.00;7.00;5.00
69349;PMS5003;64554;43.452;4.934;2023-12-20T04:41:42;8.00;8.00;5.75
69349;PMS5003;64554;43.452;4.934;2023-12-20T04:44:08;9.00;8.60;5.00
69349;PMS5003;64554;43.452;4.934;2023-12-20T04:46:35;10.00;10.00;5.00
69349;PMS5003;64554;43.452;4.934;2023-12-20T04:49:01;7.50;7.50;5.00
69349;PMS5003;64554;43.452;4.934;2023-12-20T04:51:28;17.20;16.20;7.00
69349;PMS5003;64554;43.452;4.934;2023-12-20T04:53:54;9.00;9.00;7.00
69349;PMS5003;64554;43.452;4.934;2023-12-20T04:56:21;8.60;8.60;5.00
69349;PMS5003;64554;43.452;4.934;2023-12-20T04:58:47;9.00;9.00;7.00
69349;PMS5003;64554;43.452;4.934;2023-12-20T05:01:14;9.60;9.60;6.00
69349;PMS5003;64554;43.452;4.934;2023-12-20T05:03:41;7.00;6.00;4.00
69349;PMS5003;64554;43.452;4.934;2023-12-20T05:06:09;8.00;7.00;5.40
69349;PMS5003;64554;43.452;4.934;2023-12-20T05:08:35;6.00;6.00;4.00
69349;PMS5003;64554;43.452;4.934;2023-12-20T05:11:02;8.00;8.00;4.00
69349;PMS5003;64554;43.452;4.934;2023-12-20T05:13:28;8.00;8.00;5.00
69349;PMS5003;64554;43.452;4.934;2023-12-20T05:16:10;9.00;9.00;7.00
69349;PMS5003;64554;43.452;4.934;2023-12-20T05:18:36;7.20;7.20;5.00
69349;PMS5003;64554;43.452;4.934;2023-12-20T05:21:03;8.00;8.00;5.80
69349;PMS5003;64554;43.452;4.934;2023-12-20T05:23:30;8.00;8.00;5.60
69349;PMS5003;64554;43.452;4.934;2023-12-20T05:25:56;8.00;8.00;4.00
69349;PMS5003;64554;43.452;4.934;2023-12-20T05:28:22;7.00;7.00;5.00
69349;PMS5003;64554;43.452;4.934;2023-12-20T05:30:49;9.40;8.60;6.00
69349;PMS5003;64554;43.452;4.934;2023-12-20T05:33:16;8.50;8.50;6.00
69349;PMS5003;64554;43.452;4.934;2023-12-20T05:35:42;8.00;7.50;5.00
69349;PMS5003;64554;43.452;4.934;2023-12-20T05:38:09;12.00;9.00;6.00
69349;PMS5003;64554;43.452;4.934;2023-12-20T05:40:35;12.00;9.00;5.00
69349;PMS5003;64554;43.452;4.934;2023-12-20T05:43:02;7.00;7.00;4.00
69349;PMS5003;64554;43.452;4.934;2023-12-20T05:45:28;6.00;6.00;4.00
69349;PMS5003;64554;43.452;4.934;2023-12-20T05:47:55;7.50;6.75;5.00
69349;PMS5003;64554;43.452;4.934;2023-12-20T05:50:22;9.60;7.00;5.00
69349;PMS5003;64554;43.452;4.934;2023-12-20T05:52:48;7.00;7.00;6.00
69349;PMS5003;64554;43.452;4.934;2023-12-20T05:55:15;7.00;7.00;5.00
69349;PMS5003;64554;43.452;4.934;2023-12-20T05:57:41;9.60;7.00;5.00
69349;PMS5003;64554;43.452;4.934;2023-12-20T06:00:10;6.00;6.00;4.50
69349;PMS5003;64554;43.452;4.934;2023-12-20T06:02:36;5.60;5.60;4.00
69349;PMS5003;64554;43.452;4.934;2023-12-20T06:05:06;6.00;6.00;4.00
69349;PMS5003;64554;43.452;4.934;2023-12-20T06:07:33;7.00;6.00;4.00
69349;PMS5003;64554;43.452;4.934;2023-12-20T06:09:59;5.00;5.00;3.00
69349;PMS5003;64554;43.452;4.934;2023-12-20T06:12:26;3.80;3.80;2.00
69349;PMS5003;64554;43.452;4.934;2023-12-20T06:14:58;3.00;3.00;2.00
69349;PMS5003;64554;43.452;4.934;2023-12-20T06:17:24;7.25;6.25;4.25
69349;PMS5003;64554;43.452;4.934;2023-12-20T06:19:51;5.60;5.60;4.60
69349;PMS5003;64554;43.452;4.934;2023-12-20T06:22:17;9.20;8.80;3.80
69349;PMS5003;64554;43.452;4.934;2023-12-20T06:24:44;4.80;4.80;3.20
69349;PMS5003;64554;43.452;4.934;2023-12-20T06:27:10;5.20;4.00;2.80
69349;PMS5003;64554;43.452;4.934;2023-12-20T06:29:38;5.00;5.00;3.00
69349;PMS5003;64554;43.452;4.934;2023-12-20T06:32:04;3.00;2.50;2.00
69349;PMS5003;64554;43.452;4.934;2023-12-20T06:34:31;2.75;2.75;2.75
69349;PMS5003;64554;43.452;4.934;2023-12-20T06:36:57;3.40;3.40;2.00
69349;PMS5003;64554;43.452;4.934;2023-12-20T06:39:24;5.00;5.00;4.00
69349;PMS5003;64554;43.452;4.934;2023-12-20T06:41:50;3.50;3.50;2.25
69349;PMS5003;64554;43.452;4.934;2023-12-20T06:44:17;7.50;6.00;5.00
69349;PMS5003;64554;43.452;4.934;2023-12-20T06:46:44;8.00;6.25;2.25
69349;PMS5003;64554;43.452;4.934;2023-12-20T06:49:10;5.00;5.00;3.00
69349;PMS5003;64554;43.452;4.934;2023-12-20T06:51:37;5.00;5.00;3.00
69349;PMS5003;64554;43.452;4.934;2023-12-20T06:54:03;3.20;3.20;2.60
69349;PMS5003;64554;43.452;4.934;2023-12-20T06:56:30;4.00;4.00;2.00
69349;PMS5003;64554;43.452;4.934;2023-12-20T06:58:56;9.80;6.80;3.80
69349;PMS5003;64554;43.452;4.934;2023-12-20T07:01:23;3.00;2.50;2.50
69349;PMS5003;64554;43.452;4.934;2023-12-20T07:03:49;6.50;5.50;4.00
69349;PMS5003;64554;43.452;4.934;2023-12-20T07:06:16;6.00;4.00;3.00
69349;PMS5003;64554;43.452;4.934;2023-12-20T07:08:43;6.00;5.75;3.00
69349;PMS5003;64554;43.452;4.934;2023-12-20T07:11:09;3.80;3.80;1.80
69349;PMS5003;64554;43.452;4.934;2023-12-20T07:13:36;4.00;4.00;2.00
69349;PMS5003;64554;43.452;4.934;2023-12-20T07:16:03;4.25;4.25;3.00
69349;PMS5003;64554;43.452;4.934;2023-12-20T07:18:29;3.50;3.50;2.50
69349;PMS5003;64554;43.452;4.934;2023-12-20T07:20:56;3.40;3.40;2.60
69349;PMS5003;64554;43.452;4.934;2023-12-20T07:23:22;10.00;7.00;3.00
69349;PMS5003;64554;43.452;4.934;2023-12-20T07:25:49;4.00;4.00;3.00
69349;PMS5003;64554;43.452;4.934;2023-12-20T07:28:15;7.00;4.00;3.00
69349;PMS5003;64554;43.452;4.934;2023-12-20T07:30:42;6.00;3.40;2.00
69349;PMS5003;64554;43.452;4.934;2023-12-20T07:33:08;2.00;2.00;2.00
69349;PMS5003;64554;43.452;4.934;2023-12-20T07:35:36;4.80;3.80;1.80
69349;PMS5003;64554;43.452;4.934;2023-12-20T07:38:03;5.25;5.25;4.00
69349;PMS5003;64554;43.452;4.934;2023-12-20T07:40:29;4.00;2.00;2.00
69349;PMS5003;64554;43.452;4.934;2023-12-20T07:42:55;2.00;2.00;1.00
69349;PMS5003;64554;43.452;4.934;2023-12-20T07:45:22;5.00;3.50;2.00
69349;PMS5003;64554;43.452;4.934;2023-12-20T07:47:49;5.00;5.00;3.00
69349;PMS5003;64554;43.452;4.934;2023-12-20T07:50:16;4.00;4.00;2.00
69349;PMS5003;64554;43.452;4.934;2023-12-20T07:52:43;7.25;7.25;3.50
69349;PMS5003;64554;43.452;4.934;2023-12-20T07:55:09;8.50;8.50;6.00
69349;PMS5003;64554;43.452;4.934;2023-12-20T07:57:36;9.00;9.00;6.00
69349;PMS5003;64554;43.452;4.934;2023-12-20T08:00:02;8.00;7.00;6.00
69349;PMS5003;64554;43.452;4.934;2023-12-20T08:02:30;10.40;8.40;5.00
69349;PMS5003;64554;43.452;4.934;2023-12-20T08:04:56;6.00;6.00;4.00
69349;PMS5003;64554;43.452;4.934;2023-12-20T08:07:23;7.40;6.40;3.60
69349;PMS5003;64554;43.452;4.934;2023-12-20T08:09:50;6.00;6.00;4.00
69349;PMS5003;64554;43.452;4.934;2023-12-20T08:12:18;9.00;9.00;6.00
69349;PMS5003;64554;43.452;4.934;2023-12-20T08:14:44;7.00;7.00;4.00
69349;PMS5003;64554;43.452;4.934;2023-12-20T08:17:11;3.60;3.60;2.60
69349;PMS5003;64554;43.452;4.934;2023-12-20T08:19:38;5.60;2.00;1.00
69349;PMS5003;64554;43.452;4.934;2023-12-20T08:22:05;5.00;5.00;3.50
69349;PMS5003;64554;43.452;4.934;2023-12-20T08:24:31;3.00;3.00;2.00
69349;PMS5003;64554;43.452;4.934;2023-12-20T08:26:58;2.00;2.00;1.00
69349;PMS5003;64554;43.452;4.934;2023-12-20T08:29:24;4.00;3.00;2.00
69349;PMS5003;64554;43.452;4.934;2023-12-20T08:31:54;5.00;4.00;2.00
69349;PMS5003;64554;43.452;4.934;2023-12-20T08:34:21;3.40;3.40;2.00
69349;PMS5003;64554;43.452;4.934;2023-12-20T08:36:48;4.00;1.00;1.00
69349;PMS5003;64554;43.452;4.934;2023-12-20T08:39:14;3.00;3.00;2.00
69349;PMS5003;64554;43.452;4.934;2023-12-20T08:41:41;6.20;3.00;1.00
69349;PMS5003;64554;43.452;4.934;2023-12-20T08:44:07;3.80;3.80;1.40
69349;PMS5003;64554;43.452;4.934;2023-12-20T08:46:34;4.00;2.20;1.80
69349;PMS5003;64554;43.452;4.934;2023-12-20T08:49:01;4.00;4.00;2.80
69349;PMS5003;64554;43.452;4.934;2023-12-20T08:51:27;3.00;3.00;1.75
69349;PMS5003;64554;43.452;4.934;2023-12-20T08:53:54;5.40;4.00;1.00
69349;PMS5003;64554;43.452;4.934;2023-12-20T08:56:20;1.25;1.25;0.25
69349;PMS5003;64554;43.452;4.934;2023-12-20T08:58:47;3.00;3.00;2.20
69349;PMS5003;64554;43.452;4.934;2023-12-20T09:01:14;5.25;5.25;3.00
69349;PMS5003;64554;43.452;4.934;2023-12-20T09:03:41;5.00;5.00;2.60
69349;PMS5003;64554;43.452;4.934;2023-12-20T09:06:07;5.80;5.80;2.60
69349;PMS5003;64554;43.452;4.934;2023-12-20T09:08:34;6.40;3.40;1.40
69349;PMS5003;64554;43.452;4.934;2023-12-20T09:11:00;1.75;1.75;1.25
69349;PMS5003;64554;43.452;4.934;2023-12-20T09:13:27;6.20;6.20;4.00
69349;PMS5003;64554;43.452;4.934;2023-12-20T09:15:55;4.00;3.00;2.00
69349;PMS5003;64554;43.452;4.934;2023-12-20T09:18:22;6.00;5.00;3.00
69349;PMS5003;64554;43.452;4.934;2023-12-20T09:20:49;5.00;4.00;3.00
69349;PMS5003;64554;43.452;4.934;2023-12-20T09:23:16;2.50;2.50;1.25
69349;PMS5003;64554;43.452;4.934;2023-12-20T09:25:43;6.00;2.50;1.50
69349;PMS5003;64554;43.452;4.934;2023-12-20T09:28:10;4.00;4.00;3.00
69349;PMS5003;64554;43.452;4.934;2023-12-20T09:30:37;5.40;5.20;3.00
69349;PMS5003;64554;43.452;4.934;2023-12-20T09:33:06;3.00;2.60;1.20
69349;PMS5003;64554;43.452;4.934;2023-12-20T09:35:33;4.40;4.40;3.00
69349;PMS5003;64554;43.452;4.934;2023-12-20T09:38:00;7.00;6.00;4.00
69349;PMS5003;64554;43.452;4.934;2023-12-20T09:40:27;3.80;3.80;2.00
69349;PMS5003;64554;43.452;4.934;2023-12-20T09:42:57;6.67;4.00;1.67
69349;PMS5003;64554;43.452;4.934;2023-12-20T09:45:24;4.75;3.75;2.75
69349;PMS5003;64554;43.452;4.934;2023-12-20T09:47:54;8.20;5.00;4.00
69349;PMS5003;64554;43.452;4.934;2023-12-20T09:50:21;5.50;4.50;3.00
69349;PMS5003;64554;43.452;4.934;2023-12-20T09:52:51;4.20;4.20;2.40
69349;PMS5003;64554;43.452;4.934;2023-12-20T09:55:18;8.00;5.20;2.00
69349;PMS5003;64554;43.452;4.934;2023-12-20T09:57:46;9.00;8.00;5.00
69349;PMS5003;64554;43.452;4.934;2023-12-20T10:00:14;7.75;6.00;4.00
69349;PMS5003;64554;43.452;4.934;2023-12-20T10:02:50;6.00;4.00;2.00
69349;PMS5003;64554;43.452;4.934;2023-12-20T10:05:20;3.60;3.60;2.00
69349;PMS5003;64554;43.452;4.934;2023-12-20T10:07:50;4.00;4.00;2.00
69349;PMS5003;64554;43.452;4.934;2023-12-20T10:10:17;4.25;4.25;3.00
69349;PMS5003;64554;43.452;4.934;2023-12-20T10:13:03;5.00;3.75;2.00
69349;PMS5003;64554;43.452;4.934;2023-12-20T10:15:29;5.00;5.00;2.60
69349;PMS5003;64554;43.452;4.934;2023-12-20T10:17:57;4.00;4.00;2.60
69349;PMS5003;64554;43.452;4.934;2023-12-20T10:20:27;4.00;4.00;2.00
69349;PMS5003;64554;43.452;4.934;2023-12-20T10:22:57;4.00;4.00;3.00
69349;PMS5003;64554;43.452;4.934;2023-12-20T10:25:24;3.00;3.00;2.00
69349;PMS5003;64554;43.452;4.934;2023-12-20T10:30:36;4.00;4.00;2.00
69349;PMS5003;64554;43.452;4.934;2023-12-20T10:33:05;3.40;3.40;2.00
69349;PMS5003;64554;43.452;4.934;2023-12-20T10:35:31;7.00;3.00;2.00
69349;PMS5003;64554;43.452;4.934;2023-12-20T10:37:58;5.60;5.60;2.00
69349;PMS5003;64554;43.452;4.934;2023-12-20T10:40:29;4.00;4.00;2.00
69349;PMS5003;64554;43.452;4.934;2023-12-20T10:42:56;8.00;7.00;4.00
69349;PMS5003;64554;43.452;4.934;2023-12-20T10:45:24;3.00;3.00;2.25
69349;PMS5003;64554;43.452;4.934;2023-12-20T10:47:51;5.00;3.75;2.00
69349;PMS5003;64554;43.452;4.934;2023-12-20T10:50:18;3.60;3.60;2.20
69349;PMS5003;64554;43.452;4.934;2023-12-20T10:52:45;4.00;4.00;2.00
69349;PMS5003;64554;43.452;4.934;2023-12-20T10:55:13;1.00;1.00;1.00
69349;PMS5003;64554;43.452;4.934;2023-12-20T10:57:39;4.00;3.50;2.00
69349;PMS5003;64554;43.452;4.934;2023-12-20T11:00:06;7.00;7.00;3.00
69349;PMS5003;64554;43.452;4.934;2023-12-20T11:02:39;3.00;3.00;2.00
69349;PMS5003;64554;43.452;4.934;2023-12-20T11:07:52;3.80;3.80;2.80
69349;PMS5003;64554;43.452;4.934;2023-12-20T11:10:25;3.75;3.75;2.25
69349;PMS5003;64554;43.452;4.934;2023-12-20T11:13:01;4.00;3.00;1.00
69349;PMS5003;64554;43.452;4.934;2023-12-20T11:15:38;11.00;6.80;3.60
69349;PMS5003;64554;43.452;4.934;2023-12-20T11:18:05;6.00;5.00;2.25
69349;PMS5003;64554;43.452;4.934;2023-12-20T11:20:36;9.00;6.00;3.00
69349;PMS5003;64554;43.452;4.934;2023-12-20T11:23:02;7.25;4.75;3.00
69349;PMS5003;64554;43.452;4.934;2023-12-20T11:25:29;5.00;5.00;3.00
69349;PMS5003;64554;43.452;4.934;2023-12-20T11:31:09;4.20;2.40;1.40
69349;PMS5003;64554;43.452;4.934;2023-12-20T11:33:30;8.00;5.20;3.00
69349;PMS5003;64554;43.452;4.934;2023-12-20T11:35:57;6.00;4.40;2.40
69349;PMS5003;64554;43.452;4.934;2023-12-20T11:38:25;4.50;4.50;2.00
69349;PMS5003;64554;43.452;4.934;2023-12-20T11:40:53;7.00;7.00;2.50
69349;PMS5003;64554;43.452;4.934;2023-12-20T11:43:29;4.60;4.60;1.60
69349;PMS5003;64554;43.452;4.934;2023-12-20T11:45:56;6.00;4.25;2.25
69349;PMS5003;64554;43.452;4.934;2023-12-20T11:48:28;4.80;3.80;2.60
69349;PMS5003;64554;43.452;4.934;2023-12-20T11:50:57;4.00;4.00;3.00
69349;PMS5003;64554;43.452;4.934;2023-12-20T11:53:23;7.00;4.00;3.00
69349;PMS5003;64554;43.452;4.934;2023-12-20T11:55:50;7.60;5.20;2.60
69349;PMS5003;64554;43.452;4.934;2023-12-20T11:58:17;3.20;3.20;1.80
69349;PMS5003;64554;43.452;4.934;2023-12-20T12:00:43;4.00;4.00;2.00
69349;PMS5003;64554;43.452;4.934;2023-12-20T12:03:10;4.00;4.00;3.00
69349;PMS5003;64554;43.452;4.934;2023-12-20T12:05:36;5.00;3.60;2.60
69349;PMS5003;64554;43.452;4.934;2023-12-20T12:08:03;4.20;4.00;2.20
69349;PMS5003;64554;43.452;4.934;2023-12-20T12:10:32;4.00;4.00;1.60
69349;PMS5003;64554;43.452;4.934;2023-12-20T12:12:58;5.25;3.50;1.00
69349;PMS5003;64554;43.452;4.934;2023-12-20T12:15:25;9.50;9.00;2.00
69349;PMS5003;64554;43.452;4.934;2023-12-20T12:17:55;4.60;3.00;2.00
69349;PMS5003;64554;43.452;4.934;2023-12-20T12:20:22;5.00;4.00;3.00
69349;PMS5003;64554;43.452;4.934;2023-12-20T12:23:02;5.75;5.75;1.75
69349;PMS5003;64554;43.452;4.934;2023-12-20T12:25:30;2.00;1.00;0.00
69349;PMS5003;64554;43.452;4.934;2023-12-20T12:27:58;3.00;3.00;2.00
69349;PMS5003;64554;43.452;4.934;2023-12-20T12:30:24;3.80;3.20;1.20
69349;PMS5003;64554;43.452;4.934;2023-12-20T12:32:55;4.00;3.00;2.00
69349;PMS5003;64554;43.452;4.934;2023-12-20T12:35:22;3.60;3.60;1.00
69349;PMS5003;64554;43.452;4.934;2023-12-20T12:37:49;2.80;2.60;1.60
69349;PMS5003;64554;43.452;4.934;2023-12-20T12:40:16;2.25;2.25;1.50
69349;PMS5003;64554;43.452;4.934;2023-12-20T12:42:43;3.00;3.00;2.00
69349;PMS5003;64554;43.452;4.934;2023-12-20T12:45:10;3.00;3.00;2.00
69349;PMS5003;64554;43.452;4.934;2023-12-20T12:47:37;5.00;4.00;2.00
69349;PMS5003;64554;43.452;4.934;2023-12-20T12:50:04;3.00;3.00;1.00
69349;PMS5003;64554;43.452;4.934;2023-12-20T12:52:31;2.40;2.40;1.00
69349;PMS5003;64554;43.452;4.934;2023-12-20T12:54:58;2.80;2.40;0.40
69349;PMS5003;64554;43.452;4.934;2023-12-20T12:57:25;3.00;3.00;1.40
69349;PMS5003;64554;43.452;4.934;2023-12-20T12:59:51;14.00;12.60;8.00
69349;PMS5003;64554;43.452;4.934;2023-12-20T13:02:18;16.00;12.00;7.00
69349;PMS5003;64554;43.452;4.934;2023-12-20T13:04:44;15.00;12.60;6.60
69349;PMS5003;64554;43.452;4.934;2023-12-20T13:07:11;24.20;23.20;11.60
69349;PMS5003;64554;43.452;4.934;2023-12-20T13:09:38;18.50;15.75;7.00
69349;PMS5003;64554;43.452;4.934;2023-12-20T13:12:05;11.50;8.75;4.75
69349;PMS5003;64554;43.452;4.934;2023-12-20T13:14:33;15.60;13.00;6.00
69349;PMS5003;64554;43.452;4.934;2023-12-20T13:17:03;7.50;5.50;4.00
69349;PMS5003;64554;43.452;4.934;2023-12-20T13:19:30;9.00;5.00;4.00
69349;PMS5003;64554;43.452;4.934;2023-12-20T13:21:57;10.20;5.80;3.00
69349;PMS5003;64554;43.452;4.934;2023-12-20T13:24:24;5.50;5.50;4.00
69349;PMS5003;64554;43.452;4.934;2023-12-20T13:26:51;5.00;3.50;3.00
69349;PMS5003;64554;43.452;4.934;2023-12-20T13:29:17;5.00;4.00;2.00
69349;PMS5003;64554;43.452;4.934;2023-12-20T13:31:44;6.50;4.00;2.25
69349;PMS5003;64554;43.452;4.934;2023-12-20T13:34:10;9.00;6.00;3.20
69349;PMS5003;64554;43.452;4.934;2023-12-20T13:36:37;13.50;8.00;4.00
69349;PMS5003;64554;43.452;4.934;2023-12-20T13:39:04;9.00;7.50;3.50
69349;PMS5003;64554;43.452;4.934;2023-12-20T13:41:31;8.00;6.00;3.00
69349;PMS5003;64554;43.452;4.934;2023-12-20T13:43:58;11.00;11.00;4.25
69349;PMS5003;64554;43.452;4.934;2023-12-20T13:46:24;8.00;8.00;2.50
69349;PMS5003;64554;43.452;4.934;2023-12-20T13:48:51;7.25;5.25;2.75
69349;PMS5003;64554;43.452;4.934;2023-12-20T13:51:17;10.40;9.40;2.00
69349;PMS5003;64554;43.452;4.934;2023-12-20T13:53:44;5.50;4.25;1.25
69349;PMS5003;64554;43.452;4.934;2023-12-20T13:56:10;4.20;4.00;2.00
69349;PMS5003;64554;43.452;4.934;2023-12-20T13:58:37;9.00;7.00;3.80
69349;PMS5003;64554;43.452;4.934;2023-12-20T14:01:04;11.00;7.75;4.50
69349;PMS5003;64554;43.452;4.934;2023-12-20T14:03:30;14.20;11.60;5.20
69349;PMS5003;64554;43.452;4.934;2023-12-20T14:05:57;19.60;8.60;4.60
69349;PMS5003;64554;43.452;4.934;2023-12-20T14:08:23;16.00;10.00;3.00
69349;PMS5003;64554;43.452;4.934;2023-12-20T14:10:50;7.50;4.50;2.00
69349;PMS5003;64554;43.452;4.934;2023-12-20T14:13:16;8.50;4.50;1.50
69349;PMS5003;64554;43.452;4.934;2023-12-20T14:15:43;7.00;5.40;2.00
69349;PMS5003;64554;43.452;4.934;2023-12-20T14:18:09;4.50;3.50;1.50